sensor_id;sensor_type;location;lat;lon;timestamp;P1;durP1;ratioP1;P2;durP2;ratioP2
65275;SDS011;51875;49.994;14.052;2022-10-16T00:00:33;14.95;;;10.32;;
65275;SDS011;51875;49.994;14.052;2022-10-16T00:02:09;18.90;;;10.85;;
65275;SDS011;51875;49.994;14.052;2022-10-16T00:03:25;17.20;;;9.10;;
65275;SDS011;51875;49.994;14.052;2022-10-16T00:04:40;14.98;;;9.23;;
65275;SDS011;51875;49.994;14.052;2022-10-16T00:05:58;13.57;;;8.77;;
65275;SDS011;51875;49.994;14.052;2022-10-16T00:07:15;15.15;;;8.77;;
65275;SDS011;51875;49.994;14.052;2022-10-16T00:08:31;14.40;;;8.18;;
65275;SDS011;51875;49.994;14.052;2022-10-16T00:09:47;12.20;;;8.07;;
65275;SDS011;51875;49.994;14.052;2022-10-16T00:11:03;11.55;;;7.65;;
65275;SDS011;51875;49.994;14.052;2022-10-16T00:12:28;12.30;;;8.00;;
65275;SDS011;51875;49.994;14.052;2022-10-16T00:13:44;14.98;;;9.05;;
65275;SDS011;51875;49.994;14.052;2022-10-16T00:15:01;17.15;;;10.85;;
65275;SDS011;51875;49.994;14.052;2022-10-16T00:16:17;18.13;;;10.07;;
65275;SDS011;51875;49.994;14.052;2022-10-16T00:17:34;16.40;;;10.00;;
65275;SDS011;51875;49.994;14.052;2022-10-16T00:18:49;15.57;;;10.13;;
65275;SDS011;51875;49.994;14.052;2022-10-16T00:20:05;18.48;;;9.85;;
65275;SDS011;51875;49.994;14.052;2022-10-16T00:21:22;19.58;;;9.88;;
65275;SDS011;51875;49.994;14.052;2022-10-16T00:22:40;15.93;;;9.25;;
65275;SDS011;51875;49.994;14.052;2022-10-16T00:23:59;20.08;;;9.88;;
65275;SDS011;51875;49.994;14.052;2022-10-16T00:25:16;17.27;;;9.43;;
65275;SDS011;51875;49.994;14.052;2022-10-16T00:26:32;14.10;;;8.32;;
65275;SDS011;51875;49.994;14.052;2022-10-16T00:27:49;16.33;;;7.75;;
65275;SDS011;51875;49.994;14.052;2022-10-16T00:29:04;12.27;;;7.03;;
65275;SDS011;51875;49.994;14.052;2022-10-16T00:30:20;10.27;;;7.05;;
65275;SDS011;51875;49.994;14.052;2022-10-16T00:31:36;13.98;;;7.05;;
65275;SDS011;51875;49.994;14.052;2022-10-16T00:32:51;11.13;;;6.13;;
65275;SDS011;51875;49.994;14.052;2022-10-16T00:34:07;10.85;;;6.18;;
65275;SDS011;51875;49.994;14.052;2022-10-16T00:35:23;8.77;;;6.13;;
65275;SDS011;51875;49.994;14.052;2022-10-16T00:36:38;8.80;;;5.22;;
65275;SDS011;51875;49.994;14.052;2022-10-16T00:37:54;7.85;;;5.70;;
65275;SDS011;51875;49.994;14.052;2022-10-16T00:39:10;10.80;;;6.32;;
65275;SDS011;51875;49.994;14.052;2022-10-16T00:40:25;10.93;;;5.85;;
65275;SDS011;51875;49.994;14.052;2022-10-16T00:41:40;10.43;;;6.90;;
65275;SDS011;51875;49.994;14.052;2022-10-16T00:42:56;10.63;;;6.22;;
65275;SDS011;51875;49.994;14.052;2022-10-16T00:46:01;7.47;;;5.45;;
65275;SDS011;51875;49.994;14.052;2022-10-16T00:47:28;10.40;;;5.57;;
65275;SDS011;51875;49.994;14.052;2022-10-16T00:48:56;6.95;;;5.07;;
65275;SDS011;51875;49.994;14.052;2022-10-16T00:50:16;7.85;;;4.50;;
65275;SDS011;51875;49.994;14.052;2022-10-16T00:51:39;10.25;;;4.40;;
65275;SDS011;51875;49.994;14.052;2022-10-16T00:52:55;10.77;;;6.32;;
65275;SDS011;51875;49.994;14.052;2022-10-16T00:54:30;8.13;;;5.43;;
65275;SDS011;51875;49.994;14.052;2022-10-16T00:55:47;9.00;;;5.85;;
65275;SDS011;51875;49.994;14.052;2022-10-16T00:57:04;7.82;;;5.68;;
65275;SDS011;51875;49.994;14.052;2022-10-16T00:58:21;9.85;;;5.82;;
65275;SDS011;51875;49.994;14.052;2022-10-16T00:59:40;7.82;;;5.55;;
65275;SDS011;51875;49.994;14.052;2022-10-16T01:00:56;12.00;;;6.50;;
65275;SDS011;51875;49.994;14.052;2022-10-16T01:02:12;12.20;;;7.15;;
65275;SDS011;51875;49.994;14.052;2022-10-16T01:03:33;10.80;;;6.43;;
65275;SDS011;51875;49.994;14.052;2022-10-16T01:04:51;10.52;;;6.72;;
65275;SDS011;51875;49.994;14.052;2022-10-16T01:07:41;11.50;;;5.75;;
65275;SDS011;51875;49.994;14.052;2022-10-16T01:09:13;12.38;;;7.03;;
65275;SDS011;51875;49.994;14.052;2022-10-16T01:10:49;7.28;;;4.18;;
65275;SDS011;51875;49.994;14.052;2022-10-16T01:12:36;4.80;;;3.70;;
65275;SDS011;51875;49.994;14.052;2022-10-16T01:13:53;7.97;;;4.20;;
65275;SDS011;51875;49.994;14.052;2022-10-16T01:17:01;16.40;;;8.88;;
65275;SDS011;51875;49.994;14.052;2022-10-16T01:18:34;21.95;;;10.27;;
65275;SDS011;51875;49.994;14.052;2022-10-16T01:21:32;17.42;;;9.57;;
65275;SDS011;51875;49.994;14.052;2022-10-16T01:27:31;19.33;;;10.70;;
65275;SDS011;51875;49.994;14.052;2022-10-16T01:28:52;20.67;;;11.07;;
65275;SDS011;51875;49.994;14.052;2022-10-16T01:30:20;16.55;;;10.02;;
65275;SDS011;51875;49.994;14.052;2022-10-16T01:31:40;23.08;;;11.05;;
65275;SDS011;51875;49.994;14.052;2022-10-16T01:33:00;19.13;;;9.63;;
65275;SDS011;51875;49.994;14.052;2022-10-16T01:34:42;17.45;;;11.02;;
65275;SDS011;51875;49.994;14.052;2022-10-16T01:36:07;18.10;;;10.63;;
65275;SDS011;51875;49.994;14.052;2022-10-16T01:37:32;16.33;;;9.93;;
65275;SDS011;51875;49.994;14.052;2022-10-16T01:38:53;16.05;;;9.88;;
65275;SDS011;51875;49.994;14.052;2022-10-16T01:40:16;17.40;;;10.52;;
65275;SDS011;51875;49.994;14.052;2022-10-16T01:41:44;14.13;;;9.63;;
65275;SDS011;51875;49.994;14.052;2022-10-16T01:43:06;17.23;;;10.35;;
65275;SDS011;51875;49.994;14.052;2022-10-16T01:44:31;23.67;;;11.30;;
65275;SDS011;51875;49.994;14.052;2022-10-16T01:45:49;15.50;;;9.45;;
65275;SDS011;51875;49.994;14.052;2022-10-16T01:47:05;15.70;;;9.60;;
65275;SDS011;51875;49.994;14.052;2022-10-16T01:48:24;16.42;;;9.55;;
65275;SDS011;51875;49.994;14.052;2022-10-16T01:49:39;17.35;;;10.00;;
65275;SDS011;51875;49.994;14.052;2022-10-16T01:51:04;16.92;;;9.60;;
65275;SDS011;51875;49.994;14.052;2022-10-16T01:52:23;20.02;;;9.63;;
65275;SDS011;51875;49.994;14.052;2022-10-16T01:53:43;13.13;;;8.50;;
65275;SDS011;51875;49.994;14.052;2022-10-16T01:55:05;13.77;;;8.18;;
65275;SDS011;51875;49.994;14.052;2022-10-16T01:56:23;12.25;;;6.72;;
65275;SDS011;51875;49.994;14.052;2022-10-16T01:57:41;13.65;;;6.97;;
65275;SDS011;51875;49.994;14.052;2022-10-16T01:59:11;11.70;;;5.63;;
65275;SDS011;51875;49.994;14.052;2022-10-16T02:00:30;10.88;;;5.18;;
65275;SDS011;51875;49.994;14.052;2022-10-16T02:01:47;6.80;;;5.00;;
65275;SDS011;51875;49.994;14.052;2022-10-16T02:03:06;7.80;;;4.47;;
65275;SDS011;51875;49.994;14.052;2022-10-16T02:05:53;9.82;;;3.90;;
65275;SDS011;51875;49.994;14.052;2022-10-16T02:07:10;6.43;;;4.32;;
65275;SDS011;51875;49.994;14.052;2022-10-16T02:08:27;8.43;;;4.35;;
65275;SDS011;51875;49.994;14.052;2022-10-16T02:09:45;7.78;;;4.10;;
65275;SDS011;51875;49.994;14.052;2022-10-16T02:12:46;6.88;;;3.85;;
65275;SDS011;51875;49.994;14.052;2022-10-16T02:14:11;7.00;;;4.38;;
65275;SDS011;51875;49.994;14.052;2022-10-16T02:15:26;8.95;;;4.47;;
65275;SDS011;51875;49.994;14.052;2022-10-16T02:16:43;7.35;;;4.28;;
65275;SDS011;51875;49.994;14.052;2022-10-16T02:18:01;8.10;;;5.28;;
65275;SDS011;51875;49.994;14.052;2022-10-16T02:19:18;8.63;;;5.63;;
65275;SDS011;51875;49.994;14.052;2022-10-16T02:20:42;11.55;;;5.93;;
65275;SDS011;51875;49.994;14.052;2022-10-16T02:22:04;8.18;;;4.93;;
65275;SDS011;51875;49.994;14.052;2022-10-16T02:23:35;5.82;;;4.78;;
65275;SDS011;51875;49.994;14.052;2022-10-16T02:25:03;8.13;;;5.00;;
65275;SDS011;51875;49.994;14.052;2022-10-16T02:26:25;10.25;;;4.82;;
65275;SDS011;51875;49.994;14.052;2022-10-16T02:27:53;8.57;;;5.30;;
65275;SDS011;51875;49.994;14.052;2022-10-16T02:29:17;6.57;;;4.30;;
65275;SDS011;51875;49.994;14.052;2022-10-16T02:30:45;8.68;;;4.82;;
65275;SDS011;51875;49.994;14.052;2022-10-16T02:32:05;8.25;;;4.68;;
65275;SDS011;51875;49.994;14.052;2022-10-16T02:33:22;8.45;;;4.45;;
65275;SDS011;51875;49.994;14.052;2022-10-16T02:34:40;7.18;;;4.53;;
65275;SDS011;51875;49.994;14.052;2022-10-16T02:35:56;9.60;;;4.35;;
65275;SDS011;51875;49.994;14.052;2022-10-16T02:37:13;5.05;;;4.13;;
65275;SDS011;51875;49.994;14.052;2022-10-16T02:38:29;8.32;;;4.40;;
65275;SDS011;51875;49.994;14.052;2022-10-16T02:39:45;7.55;;;4.32;;
65275;SDS011;51875;49.994;14.052;2022-10-16T02:41:01;7.00;;;4.15;;
65275;SDS011;51875;49.994;14.052;2022-10-16T02:42:17;6.28;;;4.60;;
65275;SDS011;51875;49.994;14.052;2022-10-16T02:43:33;6.15;;;3.70;;
65275;SDS011;51875;49.994;14.052;2022-10-16T02:44:49;10.13;;;4.07;;
65275;SDS011;51875;49.994;14.052;2022-10-16T02:46:05;6.10;;;4.40;;
65275;SDS011;51875;49.994;14.052;2022-10-16T02:47:21;11.73;;;5.75;;
65275;SDS011;51875;49.994;14.052;2022-10-16T02:48:36;11.00;;;5.40;;
65275;SDS011;51875;49.994;14.052;2022-10-16T02:49:52;8.63;;;5.00;;
65275;SDS011;51875;49.994;14.052;2022-10-16T02:51:07;7.22;;;4.47;;
65275;SDS011;51875;49.994;14.052;2022-10-16T02:52:23;11.35;;;4.60;;
65275;SDS011;51875;49.994;14.052;2022-10-16T02:53:38;8.25;;;4.28;;
65275;SDS011;51875;49.994;14.052;2022-10-16T02:54:54;5.30;;;3.95;;
65275;SDS011;51875;49.994;14.052;2022-10-16T02:56:10;7.60;;;4.30;;
65275;SDS011;51875;49.994;14.052;2022-10-16T02:57:25;12.60;;;4.68;;
65275;SDS011;51875;49.994;14.052;2022-10-16T02:58:41;6.82;;;4.55;;
65275;SDS011;51875;49.994;14.052;2022-10-16T02:59:57;9.45;;;4.72;;
65275;SDS011;51875;49.994;14.052;2022-10-16T03:01:12;5.93;;;4.18;;
65275;SDS011;51875;49.994;14.052;2022-10-16T03:02:29;10.15;;;4.05;;
65275;SDS011;51875;49.994;14.052;2022-10-16T03:03:44;6.70;;;4.32;;
65275;SDS011;51875;49.994;14.052;2022-10-16T03:05:00;7.40;;;3.90;;
65275;SDS011;51875;49.994;14.052;2022-10-16T03:06:16;8.88;;;4.28;;
65275;SDS011;51875;49.994;14.052;2022-10-16T03:07:31;8.60;;;4.22;;
65275;SDS011;51875;49.994;14.052;2022-10-16T03:08:47;6.43;;;4.78;;
65275;SDS011;51875;49.994;14.052;2022-10-16T03:10:03;7.45;;;4.40;;
65275;SDS011;51875;49.994;14.052;2022-10-16T03:11:18;8.57;;;4.85;;
65275;SDS011;51875;49.994;14.052;2022-10-16T03:12:34;7.72;;;4.72;;
65275;SDS011;51875;49.994;14.052;2022-10-16T03:13:50;6.75;;;4.07;;
65275;SDS011;51875;49.994;14.052;2022-10-16T03:15:05;5.90;;;4.20;;
65275;SDS011;51875;49.994;14.052;2022-10-16T03:16:22;8.00;;;4.50;;
65275;SDS011;51875;49.994;14.052;2022-10-16T03:17:37;8.10;;;4.18;;
65275;SDS011;51875;49.994;14.052;2022-10-16T03:18:53;7.80;;;4.05;;
65275;SDS011;51875;49.994;14.052;2022-10-16T03:20:09;6.75;;;4.30;;
65275;SDS011;51875;49.994;14.052;2022-10-16T03:21:24;5.45;;;3.90;;
65275;SDS011;51875;49.994;14.052;2022-10-16T03:22:40;7.07;;;4.47;;
65275;SDS011;51875;49.994;14.052;2022-10-16T03:23:55;10.45;;;5.63;;
65275;SDS011;51875;49.994;14.052;2022-10-16T03:25:11;10.57;;;6.35;;
65275;SDS011;51875;49.994;14.052;2022-10-16T03:26:27;9.32;;;5.85;;
65275;SDS011;51875;49.994;14.052;2022-10-16T03:27:42;8.88;;;5.53;;
65275;SDS011;51875;49.994;14.052;2022-10-16T03:28:58;10.45;;;5.43;;
65275;SDS011;51875;49.994;14.052;2022-10-16T03:30:13;7.15;;;5.40;;
65275;SDS011;51875;49.994;14.052;2022-10-16T03:31:29;10.90;;;5.13;;
65275;SDS011;51875;49.994;14.052;2022-10-16T03:32:45;7.10;;;5.13;;
65275;SDS011;51875;49.994;14.052;2022-10-16T03:34:00;12.60;;;5.30;;
65275;SDS011;51875;49.994;14.052;2022-10-16T03:35:16;9.02;;;5.20;;
65275;SDS011;51875;49.994;14.052;2022-10-16T03:36:32;8.45;;;4.88;;
65275;SDS011;51875;49.994;14.052;2022-10-16T03:37:47;9.15;;;4.70;;
65275;SDS011;51875;49.994;14.052;2022-10-16T03:39:03;11.43;;;6.93;;
65275;SDS011;51875;49.994;14.052;2022-10-16T03:40:19;8.93;;;6.18;;
65275;SDS011;51875;49.994;14.052;2022-10-16T03:41:34;10.20;;;6.00;;
65275;SDS011;51875;49.994;14.052;2022-10-16T03:42:50;7.82;;;4.90;;
65275;SDS011;51875;49.994;14.052;2022-10-16T03:44:05;7.13;;;4.68;;
65275;SDS011;51875;49.994;14.052;2022-10-16T03:45:21;9.48;;;5.75;;
65275;SDS011;51875;49.994;14.052;2022-10-16T03:46:36;15.35;;;8.13;;
65275;SDS011;51875;49.994;14.052;2022-10-16T03:47:52;10.45;;;6.85;;
65275;SDS011;51875;49.994;14.052;2022-10-16T03:49:08;9.35;;;5.82;;
65275;SDS011;51875;49.994;14.052;2022-10-16T03:50:23;8.40;;;5.80;;
65275;SDS011;51875;49.994;14.052;2022-10-16T03:51:39;18.10;;;7.57;;
65275;SDS011;51875;49.994;14.052;2022-10-16T03:52:54;15.80;;;9.35;;
65275;SDS011;51875;49.994;14.052;2022-10-16T03:54:10;13.63;;;8.68;;
65275;SDS011;51875;49.994;14.052;2022-10-16T03:55:26;26.10;;;11.65;;
65275;SDS011;51875;49.994;14.052;2022-10-16T03:56:41;16.02;;;11.10;;
65275;SDS011;51875;49.994;14.052;2022-10-16T03:57:57;18.10;;;11.32;;
65275;SDS011;51875;49.994;14.052;2022-10-16T03:59:12;22.33;;;13.60;;
65275;SDS011;51875;49.994;14.052;2022-10-16T04:00:28;19.13;;;11.63;;
65275;SDS011;51875;49.994;14.052;2022-10-16T04:01:44;16.52;;;11.27;;
65275;SDS011;51875;49.994;14.052;2022-10-16T04:02:59;15.52;;;10.68;;
65275;SDS011;51875;49.994;14.052;2022-10-16T04:04:15;15.48;;;10.02;;
65275;SDS011;51875;49.994;14.052;2022-10-16T04:05:31;18.70;;;9.80;;
65275;SDS011;51875;49.994;14.052;2022-10-16T04:06:47;15.18;;;8.85;;
65275;SDS011;51875;49.994;14.052;2022-10-16T04:08:02;14.60;;;8.70;;
65275;SDS011;51875;49.994;14.052;2022-10-16T04:09:18;11.80;;;7.60;;
65275;SDS011;51875;49.994;14.052;2022-10-16T04:10:34;12.77;;;8.23;;
65275;SDS011;51875;49.994;14.052;2022-10-16T04:11:49;13.20;;;7.72;;
65275;SDS011;51875;49.994;14.052;2022-10-16T04:13:08;17.08;;;8.13;;
65275;SDS011;51875;49.994;14.052;2022-10-16T04:14:23;12.95;;;7.50;;
65275;SDS011;51875;49.994;14.052;2022-10-16T04:15:39;9.30;;;6.10;;
65275;SDS011;51875;49.994;14.052;2022-10-16T04:16:55;8.75;;;5.55;;
65275;SDS011;51875;49.994;14.052;2022-10-16T04:18:10;9.18;;;5.75;;
65275;SDS011;51875;49.994;14.052;2022-10-16T04:19:26;8.30;;;5.25;;
65275;SDS011;51875;49.994;14.052;2022-10-16T04:20:42;7.70;;;5.18;;
65275;SDS011;51875;49.994;14.052;2022-10-16T04:21:57;9.45;;;5.00;;
65275;SDS011;51875;49.994;14.052;2022-10-16T04:23:13;7.88;;;4.60;;
65275;SDS011;51875;49.994;14.052;2022-10-16T04:24:28;10.40;;;4.57;;
65275;SDS011;51875;49.994;14.052;2022-10-16T04:25:44;10.23;;;4.90;;
65275;SDS011;51875;49.994;14.052;2022-10-16T04:26:59;8.50;;;5.30;;
65275;SDS011;51875;49.994;14.052;2022-10-16T04:28:15;12.82;;;5.47;;
65275;SDS011;51875;49.994;14.052;2022-10-16T04:29:30;10.23;;;5.57;;
65275;SDS011;51875;49.994;14.052;2022-10-16T04:30:46;12.93;;;5.57;;
65275;SDS011;51875;49.994;14.052;2022-10-16T04:32:02;10.32;;;5.82;;
65275;SDS011;51875;49.994;14.052;2022-10-16T04:33:17;7.75;;;6.03;;
65275;SDS011;51875;49.994;14.052;2022-10-16T04:34:32;10.45;;;5.10;;
65275;SDS011;51875;49.994;14.052;2022-10-16T04:35:48;9.55;;;5.38;;
65275;SDS011;51875;49.994;14.052;2022-10-16T04:37:10;5.85;;;4.30;;
65275;SDS011;51875;49.994;14.052;2022-10-16T04:38:26;9.93;;;4.70;;
65275;SDS011;51875;49.994;14.052;2022-10-16T04:39:42;6.60;;;4.63;;
65275;SDS011;51875;49.994;14.052;2022-10-16T04:40:57;6.45;;;4.03;;
65275;SDS011;51875;49.994;14.052;2022-10-16T04:42:13;5.38;;;4.10;;
65275;SDS011;51875;49.994;14.052;2022-10-16T04:43:29;8.18;;;4.05;;
65275;SDS011;51875;49.994;14.052;2022-10-16T04:44:44;6.97;;;4.47;;
65275;SDS011;51875;49.994;14.052;2022-10-16T04:46:00;7.50;;;4.05;;
65275;SDS011;51875;49.994;14.052;2022-10-16T04:47:16;7.00;;;4.57;;
65275;SDS011;51875;49.994;14.052;2022-10-16T04:48:32;6.20;;;4.22;;
65275;SDS011;51875;49.994;14.052;2022-10-16T04:49:47;5.75;;;4.07;;
65275;SDS011;51875;49.994;14.052;2022-10-16T04:51:03;7.05;;;3.95;;
65275;SDS011;51875;49.994;14.052;2022-10-16T04:52:19;7.03;;;4.00;;
65275;SDS011;51875;49.994;14.052;2022-10-16T04:53:36;7.35;;;4.00;;
65275;SDS011;51875;49.994;14.052;2022-10-16T04:54:51;4.35;;;3.38;;
65275;SDS011;51875;49.994;14.052;2022-10-16T04:56:07;4.93;;;3.40;;
65275;SDS011;51875;49.994;14.052;2022-10-16T04:57:23;6.20;;;3.13;;
65275;SDS011;51875;49.994;14.052;2022-10-16T04:58:38;6.47;;;3.30;;
65275;SDS011;51875;49.994;14.052;2022-10-16T04:59:54;4.68;;;3.20;;
65275;SDS011;51875;49.994;14.052;2022-10-16T05:01:10;5.63;;;2.80;;
65275;SDS011;51875;49.994;14.052;2022-10-16T05:02:25;3.95;;;3.00;;
65275;SDS011;51875;49.994;14.052;2022-10-16T05:03:41;6.07;;;3.10;;
65275;SDS011;51875;49.994;14.052;2022-10-16T05:04:56;4.07;;;3.45;;
65275;SDS011;51875;49.994;14.052;2022-10-16T05:06:12;6.47;;;4.05;;
65275;SDS011;51875;49.994;14.052;2022-10-16T05:07:27;5.50;;;3.80;;
65275;SDS011;51875;49.994;14.052;2022-10-16T05:08:43;4.45;;;3.58;;
65275;SDS011;51875;49.994;14.052;2022-10-16T05:09:58;11.93;;;4.10;;
65275;SDS011;51875;49.994;14.052;2022-10-16T05:11:14;8.85;;;3.72;;
65275;SDS011;51875;49.994;14.052;2022-10-16T05:12:35;5.60;;;3.67;;
65275;SDS011;51875;49.994;14.052;2022-10-16T05:13:51;4.72;;;3.72;;
65275;SDS011;51875;49.994;14.052;2022-10-16T05:15:07;6.35;;;3.83;;
65275;SDS011;51875;49.994;14.052;2022-10-16T05:16:23;10.82;;;3.58;;
65275;SDS011;51875;49.994;14.052;2022-10-16T05:17:38;4.55;;;3.17;;
65275;SDS011;51875;49.994;14.052;2022-10-16T05:18:54;4.78;;;3.53;;
65275;SDS011;51875;49.994;14.052;2022-10-16T05:20:10;5.32;;;3.72;;
65275;SDS011;51875;49.994;14.052;2022-10-16T05:21:26;4.95;;;3.53;;
65275;SDS011;51875;49.994;14.052;2022-10-16T05:22:41;5.28;;;3.38;;
65275;SDS011;51875;49.994;14.052;2022-10-16T05:23:56;6.65;;;3.55;;
65275;SDS011;51875;49.994;14.052;2022-10-16T05:25:12;4.03;;;3.63;;
65275;SDS011;51875;49.994;14.052;2022-10-16T05:26:28;4.15;;;3.20;;
65275;SDS011;51875;49.994;14.052;2022-10-16T05:27:46;5.38;;;3.38;;
65275;SDS011;51875;49.994;14.052;2022-10-16T05:29:03;5.57;;;4.22;;
65275;SDS011;51875;49.994;14.052;2022-10-16T05:30:18;6.80;;;3.53;;
65275;SDS011;51875;49.994;14.052;2022-10-16T05:31:34;4.00;;;3.50;;
65275;SDS011;51875;49.994;14.052;2022-10-16T05:32:50;6.10;;;3.42;;
65275;SDS011;51875;49.994;14.052;2022-10-16T05:34:05;4.00;;;2.85;;
65275;SDS011;51875;49.994;14.052;2022-10-16T05:35:21;3.50;;;2.88;;
65275;SDS011;51875;49.994;14.052;2022-10-16T05:36:37;4.40;;;3.20;;
65275;SDS011;51875;49.994;14.052;2022-10-16T05:37:52;4.20;;;3.40;;
65275;SDS011;51875;49.994;14.052;2022-10-16T05:39:08;7.60;;;3.35;;
65275;SDS011;51875;49.994;14.052;2022-10-16T05:40:23;4.88;;;3.30;;
65275;SDS011;51875;49.994;14.052;2022-10-16T05:41:39;5.78;;;3.30;;
65275;SDS011;51875;49.994;14.052;2022-10-16T05:42:55;5.80;;;3.53;;
65275;SDS011;51875;49.994;14.052;2022-10-16T05:44:11;8.60;;;3.28;;
65275;SDS011;51875;49.994;14.052;2022-10-16T05:45:26;4.10;;;2.90;;
65275;SDS011;51875;49.994;14.052;2022-10-16T05:46:42;4.32;;;2.75;;
65275;SDS011;51875;49.994;14.052;2022-10-16T05:47:57;5.32;;;2.88;;
65275;SDS011;51875;49.994;14.052;2022-10-16T05:49:14;4.60;;;2.40;;
65275;SDS011;51875;49.994;14.052;2022-10-16T05:50:29;6.43;;;3.05;;
65275;SDS011;51875;49.994;14.052;2022-10-16T05:51:45;6.13;;;2.42;;
65275;SDS011;51875;49.994;14.052;2022-10-16T05:53:01;6.15;;;2.47;;
65275;SDS011;51875;49.994;14.052;2022-10-16T05:54:16;4.10;;;2.90;;
65275;SDS011;51875;49.994;14.052;2022-10-16T05:55:32;4.60;;;2.78;;
65275;SDS011;51875;49.994;14.052;2022-10-16T05:56:48;7.72;;;2.97;;
65275;SDS011;51875;49.994;14.052;2022-10-16T05:58:03;4.10;;;2.85;;
65275;SDS011;51875;49.994;14.052;2022-10-16T05:59:19;8.77;;;3.20;;
65275;SDS011;51875;49.994;14.052;2022-10-16T06:00:34;4.72;;;2.90;;
65275;SDS011;51875;49.994;14.052;2022-10-16T06:01:50;4.18;;;3.10;;
65275;SDS011;51875;49.994;14.052;2022-10-16T06:03:05;7.88;;;3.67;;
65275;SDS011;51875;49.994;14.052;2022-10-16T06:04:22;6.93;;;4.03;;
65275;SDS011;51875;49.994;14.052;2022-10-16T06:05:37;4.93;;;2.95;;
65275;SDS011;51875;49.994;14.052;2022-10-16T06:06:53;5.07;;;3.00;;
65275;SDS011;51875;49.994;14.052;2022-10-16T06:08:12;4.60;;;2.92;;
65275;SDS011;51875;49.994;14.052;2022-10-16T06:09:28;6.13;;;3.10;;
65275;SDS011;51875;49.994;14.052;2022-10-16T06:10:43;4.93;;;2.75;;
65275;SDS011;51875;49.994;14.052;2022-10-16T06:11:59;5.35;;;3.00;;
65275;SDS011;51875;49.994;14.052;2022-10-16T06:13:15;4.45;;;3.28;;
65275;SDS011;51875;49.994;14.052;2022-10-16T06:14:30;4.55;;;2.97;;
65275;SDS011;51875;49.994;14.052;2022-10-16T06:15:47;6.45;;;3.45;;
65275;SDS011;51875;49.994;14.052;2022-10-16T06:17:03;4.90;;;3.25;;
65275;SDS011;51875;49.994;14.052;2022-10-16T06:18:18;4.50;;;2.97;;
65275;SDS011;51875;49.994;14.052;2022-10-16T06:19:34;5.13;;;3.40;;
65275;SDS011;51875;49.994;14.052;2022-10-16T06:20:49;3.70;;;3.10;;
65275;SDS011;51875;49.994;14.052;2022-10-16T06:22:05;5.60;;;3.22;;
65275;SDS011;51875;49.994;14.052;2022-10-16T06:23:21;4.65;;;3.25;;
65275;SDS011;51875;49.994;14.052;2022-10-16T06:24:37;4.35;;;2.85;;
65275;SDS011;51875;49.994;14.052;2022-10-16T06:25:52;6.93;;;3.65;;
65275;SDS011;51875;49.994;14.052;2022-10-16T06:27:08;5.05;;;3.47;;
65275;SDS011;51875;49.994;14.052;2022-10-16T06:28:23;4.55;;;3.20;;
65275;SDS011;51875;49.994;14.052;2022-10-16T06:29:39;5.18;;;3.15;;
65275;SDS011;51875;49.994;14.052;2022-10-16T06:31:00;8.90;;;3.33;;
65275;SDS011;51875;49.994;14.052;2022-10-16T06:32:17;8.02;;;3.15;;
65275;SDS011;51875;49.994;14.052;2022-10-16T06:33:33;7.05;;;3.50;;
65275;SDS011;51875;49.994;14.052;2022-10-16T06:34:49;6.72;;;3.38;;
65275;SDS011;51875;49.994;14.052;2022-10-16T06:37:21;5.57;;;2.90;;
65275;SDS011;51875;49.994;14.052;2022-10-16T06:38:37;8.63;;;5.00;;
65275;SDS011;51875;49.994;14.052;2022-10-16T06:39:53;6.80;;;4.40;;
65275;SDS011;51875;49.994;14.052;2022-10-16T06:41:09;8.95;;;4.82;;
65275;SDS011;51875;49.994;14.052;2022-10-16T06:42:27;8.48;;;4.72;;
65275;SDS011;51875;49.994;14.052;2022-10-16T06:43:43;7.68;;;4.05;;
65275;SDS011;51875;49.994;14.052;2022-10-16T06:45:00;10.93;;;4.60;;
65275;SDS011;51875;49.994;14.052;2022-10-16T06:46:17;17.10;;;3.97;;
65275;SDS011;51875;49.994;14.052;2022-10-16T06:47:35;8.63;;;4.10;;
65275;SDS011;51875;49.994;14.052;2022-10-16T06:48:50;12.75;;;4.07;;
65275;SDS011;51875;49.994;14.052;2022-10-16T06:50:06;9.93;;;3.83;;
65275;SDS011;51875;49.994;14.052;2022-10-16T06:51:23;9.05;;;3.75;;
65275;SDS011;51875;49.994;14.052;2022-10-16T06:52:40;7.47;;;3.17;;
65275;SDS011;51875;49.994;14.052;2022-10-16T06:53:55;5.50;;;3.15;;
65275;SDS011;51875;49.994;14.052;2022-10-16T06:55:14;8.07;;;3.47;;
65275;SDS011;51875;49.994;14.052;2022-10-16T06:56:32;6.57;;;3.55;;
65275;SDS011;51875;49.994;14.052;2022-10-16T06:57:48;6.00;;;3.28;;
65275;SDS011;51875;49.994;14.052;2022-10-16T06:59:04;9.73;;;4.50;;
65275;SDS011;51875;49.994;14.052;2022-10-16T07:00:19;7.07;;;4.07;;
65275;SDS011;51875;49.994;14.052;2022-10-16T07:01:35;9.15;;;4.10;;
65275;SDS011;51875;49.994;14.052;2022-10-16T07:02:50;8.23;;;4.45;;
65275;SDS011;51875;49.994;14.052;2022-10-16T07:04:06;7.40;;;4.80;;
65275;SDS011;51875;49.994;14.052;2022-10-16T07:05:22;8.40;;;4.28;;
65275;SDS011;51875;49.994;14.052;2022-10-16T07:06:37;10.02;;;3.88;;
65275;SDS011;51875;49.994;14.052;2022-10-16T07:07:53;7.22;;;3.45;;
65275;SDS011;51875;49.994;14.052;2022-10-16T07:09:09;6.05;;;3.60;;
65275;SDS011;51875;49.994;14.052;2022-10-16T07:10:25;4.43;;;3.20;;
65275;SDS011;51875;49.994;14.052;2022-10-16T07:11:40;11.32;;;6.30;;
65275;SDS011;51875;49.994;14.052;2022-10-16T07:12:57;11.73;;;4.65;;
65275;SDS011;51875;49.994;14.052;2022-10-16T07:14:16;12.20;;;4.88;;
65275;SDS011;51875;49.994;14.052;2022-10-16T07:15:33;8.40;;;4.68;;
65275;SDS011;51875;49.994;14.052;2022-10-16T07:16:49;9.00;;;4.75;;
65275;SDS011;51875;49.994;14.052;2022-10-16T07:18:05;7.85;;;4.00;;
65275;SDS011;51875;49.994;14.052;2022-10-16T07:19:20;6.45;;;4.43;;
65275;SDS011;51875;49.994;14.052;2022-10-16T07:20:36;8.52;;;4.03;;
65275;SDS011;51875;49.994;14.052;2022-10-16T07:21:52;11.15;;;3.67;;
65275;SDS011;51875;49.994;14.052;2022-10-16T07:23:08;8.82;;;3.22;;
65275;SDS011;51875;49.994;14.052;2022-10-16T07:24:23;4.20;;;3.22;;
65275;SDS011;51875;49.994;14.052;2022-10-16T07:25:39;7.78;;;4.93;;
65275;SDS011;51875;49.994;14.052;2022-10-16T07:26:55;9.23;;;4.30;;
65275;SDS011;51875;49.994;14.052;2022-10-16T07:28:11;8.27;;;5.40;;
65275;SDS011;51875;49.994;14.052;2022-10-16T07:29:26;8.07;;;5.30;;
65275;SDS011;51875;49.994;14.052;2022-10-16T07:30:42;7.22;;;5.50;;
65275;SDS011;51875;49.994;14.052;2022-10-16T07:31:58;6.57;;;4.75;;
65275;SDS011;51875;49.994;14.052;2022-10-16T07:33:14;7.35;;;4.45;;
65275;SDS011;51875;49.994;14.052;2022-10-16T07:34:29;12.32;;;4.68;;
65275;SDS011;51875;49.994;14.052;2022-10-16T07:35:51;7.00;;;3.92;;
65275;SDS011;51875;49.994;14.052;2022-10-16T07:37:08;7.22;;;4.20;;
65275;SDS011;51875;49.994;14.052;2022-10-16T07:38:23;8.98;;;4.93;;
65275;SDS011;51875;49.994;14.052;2022-10-16T07:39:39;5.55;;;4.38;;
65275;SDS011;51875;49.994;14.052;2022-10-16T07:40:58;5.85;;;4.15;;
65275;SDS011;51875;49.994;14.052;2022-10-16T07:42:15;4.60;;;3.72;;
65275;SDS011;51875;49.994;14.052;2022-10-16T07:43:30;8.80;;;4.18;;
65275;SDS011;51875;49.994;14.052;2022-10-16T07:44:46;12.82;;;8.73;;
65275;SDS011;51875;49.994;14.052;2022-10-16T07:46:02;7.75;;;4.43;;
65275;SDS011;51875;49.994;14.052;2022-10-16T07:47:18;9.80;;;4.63;;
65275;SDS011;51875;49.994;14.052;2022-10-16T07:48:34;6.40;;;3.50;;
65275;SDS011;51875;49.994;14.052;2022-10-16T07:49:50;5.68;;;3.97;;
65275;SDS011;51875;49.994;14.052;2022-10-16T07:51:06;6.60;;;3.97;;